createdAt,value
2023-04-17T00:02:01.559Z,100917.91
2023-04-17T00:06:04.249Z,100907.50
2023-04-17T00:10:10.481Z,100899.16
2023-04-17T00:14:12.462Z,100921.03
2023-04-17T00:18:14.572Z,100932.28
2023-04-17T00:22:16.614Z,100925.41
2023-04-17T00:26:19.663Z,100926.13
2023-04-17T00:30:21.745Z,100929.38
2023-04-17T00:34:23.761Z,100925.16
2023-04-17T00:38:26.227Z,100926.34
2023-04-17T00:42:28.421Z,100938.59
2023-04-17T00:46:31.379Z,100938.81
2023-04-17T00:50:33.605Z,100936.09
2023-04-17T00:54:35.985Z,100947.34
2023-04-17T00:58:38.235Z,100942.97
2023-04-17T01:02:41.004Z,100934.81
2023-04-17T01:06:43.235Z,100940.47
2023-04-17T01:10:45.914Z,100936.53
2023-04-17T01:14:50.867Z,100944.59
2023-04-17T01:18:52.961Z,100934.94
2023-04-17T01:22:54.927Z,100932.00
2023-04-17T01:26:57.065Z,100937.97
2023-04-17T01:30:59.302Z,100935.84
2023-04-17T01:35:02.186Z,100937.97
2023-04-17T01:39:04.357Z,100936.97
2023-04-17T01:43:07.030Z,100935.91
2023-04-17T01:47:09.113Z,100936.13
2023-04-17T01:51:11.248Z,100935.28
2023-04-17T01:55:13.357Z,100932.72
2023-04-17T01:59:15.796Z,100936.13
2023-04-17T02:03:18.296Z,100938.69
2023-04-17T02:07:20.699Z,100930.13
2023-04-17T02:11:22.748Z,100933.84
2023-04-17T02:15:26.245Z,100935.16
2023-04-17T02:19:28.246Z,100944.41
2023-04-17T02:23:30.250Z,100947.28
2023-04-17T02:27:32.618Z,100948.34
2023-04-17T02:31:34.664Z,100943.03
2023-04-17T02:35:36.855Z,100949.47
2023-04-17T02:39:39.139Z,100951.91
2023-04-17T02:43:41.188Z,100951.59
2023-04-17T02:47:45.095Z,100949.56
2023-04-17T02:51:47.732Z,100953.25
2023-04-17T02:55:49.790Z,100954.09
2023-04-17T02:59:54.231Z,100952.28
2023-04-17T03:03:56.896Z,100960.31
2023-04-17T03:07:59.638Z,100972.88
2023-04-17T03:12:06.136Z,100992.31
2023-04-17T03:16:08.563Z,100992.28
2023-04-17T03:20:12.884Z,100992.94
2023-04-17T03:24:14.877Z,100994.25
2023-04-17T03:28:16.944Z,100996.28
2023-04-17T03:32:19.597Z,100995.38
2023-04-17T03:36:21.641Z,101006.22
2023-04-17T03:40:23.961Z,100989.84
2023-04-17T03:44:26.044Z,100999.03
2023-04-17T03:48:28.493Z,100992.09
2023-04-17T03:52:30.688Z,101007.53
2023-04-17T03:56:34.194Z,101014.19
2023-04-17T04:00:37.440Z,101026.28
2023-04-17T04:04:43.649Z,101023.19
2023-04-17T04:08:49.638Z,101034.03
2023-04-17T04:12:52.273Z,101038.00
2023-04-17T04:16:54.934Z,101034.88
2023-04-17T04:20:57.026Z,101038.94
2023-04-17T04:25:04.211Z,101035.50
2023-04-17T04:29:25.579Z,101036.09
2023-04-17T04:33:35.881Z,101042.28
2023-04-17T04:37:38.298Z,101044.69
2023-04-17T04:41:46.185Z,101036.53
2023-04-17T04:45:49.417Z,101044.16
2023-04-17T04:49:52.168Z,101044.03
2023-04-17T04:53:56.643Z,101042.78
2023-04-17T04:57:59.463Z,101043.38
2023-04-17T05:02:02.536Z,101049.13
2023-04-17T05:06:04.741Z,101038.19
2023-04-17T05:10:14.433Z,101044.66
2023-04-17T05:14:22.704Z,101044.22
2023-04-17T05:18:25.041Z,101041.09
2023-04-17T05:22:27.589Z,101041.19
2023-04-17T05:26:44.037Z,101043.56
2023-04-17T05:30:46.197Z,101042.22
2023-04-17T05:34:57.848Z,101053.63
2023-04-17T05:39:02.373Z,101053.06
2023-04-17T05:43:09.847Z,101062.72
2023-04-17T05:47:12.904Z,101070.72
2023-04-17T05:51:15.011Z,101069.63
2023-04-17T05:55:20.002Z,101074.97
2023-04-17T05:59:25.351Z,101066.16
2023-04-17T06:03:28.162Z,101066.72
2023-04-17T06:07:53.597Z,101074.78
2023-04-17T06:11:57.203Z,101080.81
2023-04-17T06:15:59.290Z,101090.16
2023-04-17T06:20:01.331Z,101090.16
2023-04-17T06:24:03.904Z,101092.94
2023-04-17T06:28:05.975Z,101091.41
2023-04-17T06:32:08.180Z,101115.16
2023-04-17T06:36:12.027Z,101118.47
2023-04-17T06:40:23.578Z,101113.66
2023-04-17T06:44:27.139Z,101132.31
2023-04-17T06:48:30.015Z,101123.72
2023-04-17T06:52:32.011Z,101116.22
2023-04-17T06:56:34.156Z,101153.16
2023-04-17T07:00:36.431Z,101134.41
2023-04-17T07:04:38.622Z,101138.72
2023-04-17T07:08:40.649Z,101127.91
2023-04-17T07:12:42.774Z,101160.63
2023-04-17T07:16:44.886Z,101157.13
2023-04-17T07:20:47.913Z,101170.75
2023-04-17T07:24:50.062Z,101171.84
2023-04-17T07:28:52.135Z,101186.50
2023-04-17T07:32:54.305Z,101199.94
2023-04-17T07:36:56.718Z,101197.97
2023-04-17T07:40:59.150Z,101201.72
2023-04-17T07:45:01.268Z,101224.59
2023-04-17T07:49:03.322Z,101194.28
2023-04-17T07:53:05.561Z,101181.94
2023-04-17T07:57:08.242Z,101185.06
2023-04-17T08:01:10.651Z,101185.63
2023-04-17T08:05:12.753Z,101187.13
2023-04-17T08:09:14.819Z,101188.19
2023-04-17T08:13:16.814Z,101197.97
2023-04-17T08:17:22.965Z,101210.91
2023-04-17T08:21:25.083Z,101229.28
2023-04-17T08:25:27.585Z,101204.09
2023-04-17T08:29:29.603Z,101247.94
2023-04-17T08:33:31.767Z,101253.31
2023-04-17T08:37:35.970Z,101261.22
2023-04-17T08:42:00.405Z,101252.91
2023-04-17T08:46:03.517Z,101255.53
2023-04-17T08:50:14.060Z,101254.59
2023-04-17T08:54:16.095Z,101244.56
2023-04-17T08:58:18.198Z,101284.59
2023-04-17T09:02:20.784Z,101281.78
2023-04-17T09:06:23.098Z,101291.78
2023-04-17T09:10:35.806Z,101283.06
2023-04-17T09:14:37.848Z,101283.31
2023-04-17T09:18:42.554Z,101286.06
2023-04-17T09:22:44.717Z,101282.06
2023-04-17T09:26:46.679Z,101288.25
2023-04-17T09:30:48.768Z,101277.69
2023-04-17T09:34:51.125Z,101276.34
2023-04-17T09:38:53.897Z,101280.34
2023-04-17T09:43:02.089Z,101273.53
2023-04-17T09:47:05.054Z,101286.72
2023-04-17T09:51:07.747Z,101284.50
2023-04-17T09:55:11.778Z,101294.56
2023-04-17T09:59:14.871Z,101284.63
2023-04-17T10:03:17.886Z,101290.69
2023-04-17T10:07:20.144Z,101292.88
2023-04-17T10:11:29.914Z,101282.63
2023-04-17T10:15:33.780Z,101284.81
2023-04-17T10:19:36.716Z,101292.84
2023-04-17T10:23:40.051Z,101286.13
2023-04-17T10:27:42.948Z,101296.91
2023-04-17T10:32:07.189Z,101290.06
2023-04-17T10:36:38.394Z,101286.59
2023-04-17T10:40:43.560Z,101282.75
2023-04-17T10:44:46.619Z,101284.34
2023-04-17T10:48:53.139Z,101286.09
2023-04-17T10:52:55.531Z,101280.75
2023-04-17T10:56:58.448Z,101286.50
2023-04-17T11:01:09.353Z,101283.13
2023-04-17T11:05:12.701Z,101289.50
2023-04-17T11:09:16.131Z,101289.16
2023-04-17T11:13:18.647Z,101289.88
2023-04-17T11:17:21.474Z,101292.75
2023-04-17T11:21:23.579Z,101292.78
2023-04-17T11:25:27.840Z,101285.66
2023-04-17T11:29:29.927Z,101290.22
2023-04-17T11:33:36.910Z,101296.25
2023-04-17T11:38:04.813Z,101300.53
2023-04-17T11:42:06.816Z,101302.41
2023-04-17T11:46:08.808Z,101299.66
2023-04-17T11:50:11.096Z,101311.75
2023-04-17T11:54:29.887Z,101298.16
2023-04-17T11:58:32.037Z,101301.66
2023-04-17T12:02:34.221Z,101296.09
2023-04-17T12:06:37.807Z,101292.53
2023-04-17T12:10:42.170Z,101298.09
2023-04-17T12:14:44.281Z,101299.13
2023-04-17T12:18:46.399Z,101298.81
2023-04-17T12:22:48.703Z,101301.47
2023-04-17T12:26:51.766Z,101299.97
2023-04-17T12:30:53.880Z,101303.72
2023-04-17T12:34:56.306Z,101307.66
2023-04-17T12:38:58.452Z,101296.66
2023-04-17T12:43:00.760Z,101298.09
2023-04-17T12:47:02.841Z,101298.47
2023-04-17T12:51:04.970Z,101307.91
2023-04-17T12:55:08.494Z,101305.69
2023-04-17T12:59:10.949Z,101305.00
2023-04-17T13:03:13.425Z,101307.66
2023-04-17T13:07:15.489Z,101313.78
2023-04-17T13:11:17.608Z,101311.81
2023-04-17T13:15:19.923Z,101313.56
2023-04-17T13:19:22.037Z,101314.41
2023-04-17T13:23:24.176Z,101320.69
2023-04-17T13:27:26.583Z,101316.00
2023-04-17T13:31:28.655Z,101317.88
2023-04-17T13:35:31.026Z,101326.06
2023-04-17T13:39:33.088Z,101311.94
2023-04-17T13:43:35.139Z,101328.78
2023-04-17T13:47:37.302Z,101328.00
2023-04-17T13:51:39.452Z,101326.00
2023-04-17T13:55:41.510Z,101324.09
2023-04-17T13:59:43.716Z,101325.81
2023-04-17T14:03:46.420Z,101331.91
2023-04-17T14:07:48.630Z,101325.28
2023-04-17T14:11:50.629Z,101323.25
2023-04-17T14:15:54.739Z,101329.06
2023-04-17T14:19:56.833Z,101323.97
2023-04-17T14:23:58.846Z,101337.84
2023-04-17T14:28:00.882Z,101332.28
2023-04-17T14:32:03.040Z,101328.16
2023-04-17T14:36:06.050Z,101333.72
2023-04-17T14:40:08.656Z,101330.94
2023-04-17T14:44:10.898Z,101321.59
2023-04-17T14:48:13.709Z,101327.31
2023-04-17T14:52:15.767Z,101325.28
2023-04-17T14:56:18.031Z,101326.59
2023-04-17T15:00:20.902Z,101328.19
2023-04-17T15:04:23.098Z,101329.16
2023-04-17T15:08:25.655Z,101328.19
2023-04-17T15:12:28.066Z,101334.72
2023-04-17T15:16:30.694Z,101340.66
2023-04-17T15:20:34.073Z,101330.38
2023-04-17T15:24:37.193Z,101329.81
2023-04-17T15:28:40.053Z,101328.00
2023-04-17T15:32:42.664Z,101330.66
2023-04-17T15:36:44.801Z,101332.13
2023-04-17T15:40:46.847Z,101324.13
2023-04-17T15:44:49.357Z,101318.94
2023-04-17T15:49:04.981Z,101334.22
2023-04-17T15:53:10.692Z,101330.66
2023-04-17T15:57:12.756Z,101331.78
2023-04-17T16:01:14.812Z,101340.38
2023-04-17T16:05:17.260Z,101338.13
2023-04-17T16:09:23.822Z,101333.00
2023-04-17T16:13:25.960Z,101340.00
2023-04-17T16:17:28.135Z,101345.91
2023-04-17T16:21:30.805Z,101341.13
2023-04-17T16:25:32.941Z,101345.41
2023-04-17T16:29:35.450Z,101347.72
2023-04-17T16:33:39.638Z,101348.66
2023-04-17T16:37:41.856Z,101351.91
2023-04-17T16:41:43.892Z,101358.59
2023-04-17T16:45:46.236Z,101356.63
2023-04-17T16:49:48.325Z,101370.53
2023-04-17T16:53:50.816Z,101373.03
2023-04-17T16:57:53.118Z,101365.44
2023-04-17T17:01:55.435Z,101370.59
2023-04-17T17:05:57.621Z,101384.94
2023-04-17T17:10:00.131Z,101377.50
2023-04-17T17:14:02.361Z,101377.84
2023-04-17T17:18:04.825Z,101382.72
2023-04-17T17:22:06.916Z,101387.97
2023-04-17T17:26:09.210Z,101388.44
2023-04-17T17:30:12.771Z,101395.13
2023-04-17T17:38:19.989Z,101393.47
2023-04-17T17:42:22.958Z,101403.78
2023-04-17T17:46:30.589Z,101402.13
2023-04-17T17:50:32.721Z,101409.56
2023-04-17T17:54:36.855Z,101391.97
2023-04-17T17:58:38.969Z,101405.97
2023-04-17T18:02:41.174Z,101398.91
2023-04-17T18:06:43.608Z,101405.19
2023-04-17T18:10:47.433Z,101414.22
2023-04-17T18:14:49.897Z,101416.00
2023-04-17T18:18:51.925Z,101410.59
2023-04-17T18:22:54.331Z,101416.84
2023-04-17T18:26:57.182Z,101416.19
2023-04-17T18:30:59.164Z,101422.97
2023-04-17T18:35:04.022Z,101421.78
2023-04-17T18:39:06.335Z,101422.19
2023-04-17T18:43:10.142Z,101423.56
2023-04-17T18:47:12.316Z,101427.66
2023-04-17T18:51:14.918Z,101426.88
2023-04-17T18:55:17.537Z,101432.16
2023-04-17T18:59:21.314Z,101424.84
2023-04-17T19:03:23.485Z,101424.13
2023-04-17T19:07:26.064Z,101424.28
2023-04-17T19:11:28.979Z,101427.09
2023-04-17T19:15:31.099Z,101431.00
2023-04-17T19:19:33.139Z,101431.38
2023-04-17T19:23:36.953Z,101430.66
2023-04-17T19:27:39.168Z,101428.31
2023-04-17T19:31:41.539Z,101426.25
2023-04-17T19:35:44.609Z,101424.25
2023-04-17T19:39:46.648Z,101425.00
2023-04-17T19:43:50.815Z,101426.53
2023-04-17T19:47:56.965Z,101425.19
2023-04-17T19:52:00.896Z,101418.34
2023-04-17T19:56:08.489Z,101410.47
2023-04-17T20:00:12.049Z,101412.94
2023-04-17T20:04:18.858Z,101408.25
2023-04-17T20:08:21.281Z,101405.22
2023-04-17T20:12:23.456Z,101415.31
2023-04-17T20:16:25.532Z,101410.88
2023-04-17T20:20:27.657Z,101411.81
2023-04-17T20:24:29.647Z,101401.81
2023-04-17T20:28:31.839Z,101395.75
2023-04-17T20:32:33.832Z,101397.88
2023-04-17T20:36:35.934Z,101400.69
2023-04-17T20:40:38.089Z,101402.56
2023-04-17T20:44:40.434Z,101408.63
2023-04-17T20:48:42.787Z,101399.25
2023-04-17T20:52:44.845Z,101406.03
2023-04-17T20:56:47.263Z,101398.56
2023-04-17T21:01:00.653Z,101404.38
2023-04-17T21:05:06.255Z,101395.59
2023-04-17T21:09:08.924Z,101392.88
2023-04-17T21:13:10.981Z,101396.59
2023-04-17T21:17:13.104Z,101398.72
2023-04-17T21:21:15.046Z,101393.88
2023-04-17T21:25:17.131Z,101404.69
2023-04-17T21:29:19.202Z,101414.63
2023-04-17T21:33:21.316Z,101421.75
2023-04-17T21:37:23.261Z,101420.06
2023-04-17T21:41:26.063Z,101409.72
2023-04-17T21:45:28.021Z,101406.94
2023-04-17T21:49:30.036Z,101389.44
2023-04-17T21:53:36.466Z,101366.56
2023-04-17T21:57:39.356Z,101365.03
2023-04-17T22:01:41.366Z,101371.34
2023-04-17T22:05:44.029Z,101372.47
2023-04-17T22:09:46.014Z,101356.38
2023-04-17T22:13:48.160Z,101346.22
2023-04-17T22:17:50.640Z,101357.06
2023-04-17T22:21:52.777Z,101345.31
2023-04-17T22:25:54.683Z,101348.31
2023-04-17T22:29:56.839Z,101357.63
2023-04-17T22:33:59.160Z,101355.78
2023-04-17T22:38:01.236Z,101356.78
2023-04-17T22:42:03.281Z,101359.00
2023-04-17T22:46:05.341Z,101357.63
2023-04-17T22:50:08.168Z,101352.72
2023-04-17T22:54:21.518Z,101350.16
2023-04-17T22:58:24.935Z,101356.47
2023-04-17T23:02:27.043Z,101359.25
2023-04-17T23:06:29.143Z,101358.94
2023-04-17T23:10:31.553Z,101357.19
2023-04-17T23:14:33.805Z,101363.50
2023-04-17T23:18:37.305Z,101360.91
2023-04-17T23:22:39.321Z,101359.19
2023-04-17T23:26:41.915Z,101353.81
2023-04-17T23:30:43.914Z,101349.31
2023-04-17T23:34:45.888Z,101352.47
2023-04-17T23:38:47.903Z,101349.06
2023-04-17T23:42:50.029Z,101345.53
2023-04-17T23:46:52.044Z,101341.06
2023-04-17T23:50:54.311Z,101345.34
2023-04-17T23:54:56.673Z,101346.50
2023-04-17T23:58:58.809Z,101333.56
